sensor_id;sensor_type;location;lat;lon;timestamp;temperature;humidity
3986;DHT22;2007;48.750;9.278;2023-07-13T00:02:04;28.50;51.80
3986;DHT22;2007;48.750;9.278;2023-07-13T00:04:32;28.50;51.80
3986;DHT22;2007;48.750;9.278;2023-07-13T00:07:02;28.50;51.80
3986;DHT22;2007;48.750;9.278;2023-07-13T00:09:30;28.50;51.80
3986;DHT22;2007;48.750;9.278;2023-07-13T00:11:58;28.60;51.80
3986;DHT22;2007;48.750;9.278;2023-07-13T00:14:27;28.50;51.60
3986;DHT22;2007;48.750;9.278;2023-07-13T00:16:56;28.50;51.70
3986;DHT22;2007;48.750;9.278;2023-07-13T00:19:28;28.50;51.80
3986;DHT22;2007;48.750;9.278;2023-07-13T00:21:58;28.50;51.80
3986;DHT22;2007;48.750;9.278;2023-07-13T00:24:27;28.50;51.70
3986;DHT22;2007;48.750;9.278;2023-07-13T00:26:55;28.50;51.80
3986;DHT22;2007;48.750;9.278;2023-07-13T00:29:25;28.50;51.80
3986;DHT22;2007;48.750;9.278;2023-07-13T00:31:53;28.50;51.80
3986;DHT22;2007;48.750;9.278;2023-07-13T00:34:21;28.50;51.80
3986;DHT22;2007;48.750;9.278;2023-07-13T00:36:49;28.50;51.70
3986;DHT22;2007;48.750;9.278;2023-07-13T00:39:17;28.50;51.90
3986;DHT22;2007;48.750;9.278;2023-07-13T00:41:49;28.50;51.90
3986;DHT22;2007;48.750;9.278;2023-07-13T00:44:19;28.50;51.90
3986;DHT22;2007;48.750;9.278;2023-07-13T00:46:47;28.50;51.90
3986;DHT22;2007;48.750;9.278;2023-07-13T00:49:17;28.50;51.90
3986;DHT22;2007;48.750;9.278;2023-07-13T00:51:50;28.50;51.80
3986;DHT22;2007;48.750;9.278;2023-07-13T00:54:21;28.50;51.90
3986;DHT22;2007;48.750;9.278;2023-07-13T00:56:53;28.50;51.80
3986;DHT22;2007;48.750;9.278;2023-07-13T00:59:24;28.50;51.90
3986;DHT22;2007;48.750;9.278;2023-07-13T01:01:52;28.50;51.80
3986;DHT22;2007;48.750;9.278;2023-07-13T01:04:20;28.50;51.90
3986;DHT22;2007;48.750;9.278;2023-07-13T01:06:48;28.50;51.90
3986;DHT22;2007;48.750;9.278;2023-07-13T01:09:16;28.50;51.90
3986;DHT22;2007;48.750;9.278;2023-07-13T01:11:44;28.50;52.00
3986;DHT22;2007;48.750;9.278;2023-07-13T01:14:14;28.50;51.90
3986;DHT22;2007;48.750;9.278;2023-07-13T01:16:45;28.50;51.90
3986;DHT22;2007;48.750;9.278;2023-07-13T01:19:26;28.50;51.80
3986;DHT22;2007;48.750;9.278;2023-07-13T01:21:58;28.50;52.50
3986;DHT22;2007;48.750;9.278;2023-07-13T01:24:26;28.50;51.90
3986;DHT22;2007;48.750;9.278;2023-07-13T01:26:53;28.50;51.90
3986;DHT22;2007;48.750;9.278;2023-07-13T01:29:22;28.50;52.00
3986;DHT22;2007;48.750;9.278;2023-07-13T01:31:50;28.50;51.90
3986;DHT22;2007;48.750;9.278;2023-07-13T01:34:18;28.50;51.90
3986;DHT22;2007;48.750;9.278;2023-07-13T01:36:46;28.50;52.00
3986;DHT22;2007;48.750;9.278;2023-07-13T01:39:15;28.50;51.90
3986;DHT22;2007;48.750;9.278;2023-07-13T01:41:43;28.50;51.90
3986;DHT22;2007;48.750;9.278;2023-07-13T01:44:11;28.50;51.90
3986;DHT22;2007;48.750;9.278;2023-07-13T01:46:39;28.50;51.90
3986;DHT22;2007;48.750;9.278;2023-07-13T01:49:07;28.50;51.90
3986;DHT22;2007;48.750;9.278;2023-07-13T01:51:35;28.50;51.90
3986;DHT22;2007;48.750;9.278;2023-07-13T01:54:03;28.50;51.90
3986;DHT22;2007;48.750;9.278;2023-07-13T01:56:32;28.50;51.90
3986;DHT22;2007;48.750;9.278;2023-07-13T01:59:00;28.50;51.90
3986;DHT22;2007;48.750;9.278;2023-07-13T02:01:28;28.50;51.90
3986;DHT22;2007;48.750;9.278;2023-07-13T02:03:56;28.50;51.90
3986;DHT22;2007;48.750;9.278;2023-07-13T02:06:24;28.50;51.90
3986;DHT22;2007;48.750;9.278;2023-07-13T02:08:52;28.50;51.90
3986;DHT22;2007;48.750;9.278;2023-07-13T02:11:21;28.50;51.90
3986;DHT22;2007;48.750;9.278;2023-07-13T02:13:50;28.50;52.00
3986;DHT22;2007;48.750;9.278;2023-07-13T02:16:18;28.50;52.00
3986;DHT22;2007;48.750;9.278;2023-07-13T02:18:46;28.50;51.90
3986;DHT22;2007;48.750;9.278;2023-07-13T02:21:14;28.50;51.90
3986;DHT22;2007;48.750;9.278;2023-07-13T02:23:42;28.50;51.90
3986;DHT22;2007;48.750;9.278;2023-07-13T02:26:10;28.40;51.80
3986;DHT22;2007;48.750;9.278;2023-07-13T02:28:39;28.40;51.90
3986;DHT22;2007;48.750;9.278;2023-07-13T02:31:11;28.40;51.80
3986;DHT22;2007;48.750;9.278;2023-07-13T02:33:40;28.40;51.80
3986;DHT22;2007;48.750;9.278;2023-07-13T02:36:09;28.50;51.90
3986;DHT22;2007;48.750;9.278;2023-07-13T02:38:37;28.40;51.80
3986;DHT22;2007;48.750;9.278;2023-07-13T02:41:06;28.40;51.90
3986;DHT22;2007;48.750;9.278;2023-07-13T02:43:36;28.40;51.80
3986;DHT22;2007;48.750;9.278;2023-07-13T02:46:05;28.40;51.80
3986;DHT22;2007;48.750;9.278;2023-07-13T02:48:37;28.40;51.80
3986;DHT22;2007;48.750;9.278;2023-07-13T02:51:06;28.40;51.80
3986;DHT22;2007;48.750;9.278;2023-07-13T02:53:35;28.40;51.80
3986;DHT22;2007;48.750;9.278;2023-07-13T02:56:03;28.40;51.80
3986;DHT22;2007;48.750;9.278;2023-07-13T02:58:32;28.40;51.80
3986;DHT22;2007;48.750;9.278;2023-07-13T03:01:06;28.40;51.80
3986;DHT22;2007;48.750;9.278;2023-07-13T03:03:36;28.40;51.80
3986;DHT22;2007;48.750;9.278;2023-07-13T03:06:05;28.40;51.90
3986;DHT22;2007;48.750;9.278;2023-07-13T03:08:35;28.40;51.90
3986;DHT22;2007;48.750;9.278;2023-07-13T03:11:06;28.40;51.90
3986;DHT22;2007;48.750;9.278;2023-07-13T03:13:35;28.40;51.90
3986;DHT22;2007;48.750;9.278;2023-07-13T03:16:03;28.40;51.80
3986;DHT22;2007;48.750;9.278;2023-07-13T03:18:31;28.40;51.90
3986;DHT22;2007;48.750;9.278;2023-07-13T03:21:01;28.40;51.90
3986;DHT22;2007;48.750;9.278;2023-07-13T03:23:29;28.40;51.80
3986;DHT22;2007;48.750;9.278;2023-07-13T03:26:06;28.40;51.90
3986;DHT22;2007;48.750;9.278;2023-07-13T03:28:34;28.40;51.90
3986;DHT22;2007;48.750;9.278;2023-07-13T03:31:04;28.40;51.80
3986;DHT22;2007;48.750;9.278;2023-07-13T03:33:37;28.40;51.90
3986;DHT22;2007;48.750;9.278;2023-07-13T03:36:07;28.40;51.80
3986;DHT22;2007;48.750;9.278;2023-07-13T03:38:36;28.40;51.90
3986;DHT22;2007;48.750;9.278;2023-07-13T03:41:04;28.40;51.90
3986;DHT22;2007;48.750;9.278;2023-07-13T03:43:32;28.40;51.90
3986;DHT22;2007;48.750;9.278;2023-07-13T03:46:00;28.40;51.90
3986;DHT22;2007;48.750;9.278;2023-07-13T03:48:28;28.40;51.90
3986;DHT22;2007;48.750;9.278;2023-07-13T03:50:56;28.40;51.90
3986;DHT22;2007;48.750;9.278;2023-07-13T03:53:25;28.40;51.90
3986;DHT22;2007;48.750;9.278;2023-07-13T03:55:53;28.40;51.80
3986;DHT22;2007;48.750;9.278;2023-07-13T03:58:28;28.40;51.90
3986;DHT22;2007;48.750;9.278;2023-07-13T04:00:57;28.40;51.90
3986;DHT22;2007;48.750;9.278;2023-07-13T04:03:26;28.40;51.90
3986;DHT22;2007;48.750;9.278;2023-07-13T04:05:55;28.30;51.80
3986;DHT22;2007;48.750;9.278;2023-07-13T04:08:29;28.30;51.90
3986;DHT22;2007;48.750;9.278;2023-07-13T04:10:58;28.40;51.80
3986;DHT22;2007;48.750;9.278;2023-07-13T04:13:27;28.30;51.90
3986;DHT22;2007;48.750;9.278;2023-07-13T04:15:55;28.30;51.90
3986;DHT22;2007;48.750;9.278;2023-07-13T04:18:23;28.30;52.00
3986;DHT22;2007;48.750;9.278;2023-07-13T04:20:51;28.30;51.90
3986;DHT22;2007;48.750;9.278;2023-07-13T04:23:19;28.30;51.90
3986;DHT22;2007;48.750;9.278;2023-07-13T04:25:51;28.30;51.90
3986;DHT22;2007;48.750;9.278;2023-07-13T04:28:21;28.30;51.90
3986;DHT22;2007;48.750;9.278;2023-07-13T04:30:49;28.30;51.90
3986;DHT22;2007;48.750;9.278;2023-07-13T04:33:17;28.30;52.00
3986;DHT22;2007;48.750;9.278;2023-07-13T04:35:49;28.30;51.80
3986;DHT22;2007;48.750;9.278;2023-07-13T04:38:24;28.30;51.90
3986;DHT22;2007;48.750;9.278;2023-07-13T04:40:57;28.30;51.90
3986;DHT22;2007;48.750;9.278;2023-07-13T04:43:25;28.30;51.90
3986;DHT22;2007;48.750;9.278;2023-07-13T04:45:54;28.30;52.00
3986;DHT22;2007;48.750;9.278;2023-07-13T04:48:22;28.30;52.00
3986;DHT22;2007;48.750;9.278;2023-07-13T04:50:55;28.30;52.00
3986;DHT22;2007;48.750;9.278;2023-07-13T04:53:24;28.30;52.00
3986;DHT22;2007;48.750;9.278;2023-07-13T04:55:52;28.30;52.00
3986;DHT22;2007;48.750;9.278;2023-07-13T04:58:21;28.30;52.00
3986;DHT22;2007;48.750;9.278;2023-07-13T05:00:50;28.30;52.00
3986;DHT22;2007;48.750;9.278;2023-07-13T05:03:18;28.30;52.10
3986;DHT22;2007;48.750;9.278;2023-07-13T05:05:55;28.30;52.10
3986;DHT22;2007;48.750;9.278;2023-07-13T05:08:23;28.30;52.10
3986;DHT22;2007;48.750;9.278;2023-07-13T05:10:51;28.30;52.10
3986;DHT22;2007;48.750;9.278;2023-07-13T05:13:21;28.30;52.20
3986;DHT22;2007;48.750;9.278;2023-07-13T05:15:56;28.30;52.10
3986;DHT22;2007;48.750;9.278;2023-07-13T05:18:24;28.30;52.20
3986;DHT22;2007;48.750;9.278;2023-07-13T05:21:00;28.30;52.10
3986;DHT22;2007;48.750;9.278;2023-07-13T05:23:28;28.30;52.20
3986;DHT22;2007;48.750;9.278;2023-07-13T05:25:56;28.20;52.10
3986;DHT22;2007;48.750;9.278;2023-07-13T05:28:27;28.20;52.10
3986;DHT22;2007;48.750;9.278;2023-07-13T05:30:56;28.20;52.10
3986;DHT22;2007;48.750;9.278;2023-07-13T05:33:25;28.20;52.20
3986;DHT22;2007;48.750;9.278;2023-07-13T05:35:54;28.20;52.10
3986;DHT22;2007;48.750;9.278;2023-07-13T05:38:22;28.20;52.10
3986;DHT22;2007;48.750;9.278;2023-07-13T05:40:50;28.20;52.10
3986;DHT22;2007;48.750;9.278;2023-07-13T05:43:18;28.20;52.10
3986;DHT22;2007;48.750;9.278;2023-07-13T05:45:48;28.20;52.20
3986;DHT22;2007;48.750;9.278;2023-07-13T05:48:16;28.20;52.20
3986;DHT22;2007;48.750;9.278;2023-07-13T05:50:44;28.20;52.10
3986;DHT22;2007;48.750;9.278;2023-07-13T05:53:12;28.20;52.20
3986;DHT22;2007;48.750;9.278;2023-07-13T05:55:41;28.20;52.20
3986;DHT22;2007;48.750;9.278;2023-07-13T05:58:10;28.20;52.20
3986;DHT22;2007;48.750;9.278;2023-07-13T06:00:38;28.20;52.20
3986;DHT22;2007;48.750;9.278;2023-07-13T06:03:08;28.20;52.20
3986;DHT22;2007;48.750;9.278;2023-07-13T06:05:36;28.20;52.20
3986;DHT22;2007;48.750;9.278;2023-07-13T06:08:06;28.20;52.20
3986;DHT22;2007;48.750;9.278;2023-07-13T06:10:35;28.20;52.10
3986;DHT22;2007;48.750;9.278;2023-07-13T06:13:03;28.20;52.20
3986;DHT22;2007;48.750;9.278;2023-07-13T06:15:31;28.20;52.10
3986;DHT22;2007;48.750;9.278;2023-07-13T06:18:00;28.20;52.10
3986;DHT22;2007;48.750;9.278;2023-07-13T06:20:33;28.20;52.20
3986;DHT22;2007;48.750;9.278;2023-07-13T06:23:01;28.20;52.20
3986;DHT22;2007;48.750;9.278;2023-07-13T06:25:29;28.20;52.20
3986;DHT22;2007;48.750;9.278;2023-07-13T06:27:58;28.20;52.20
3986;DHT22;2007;48.750;9.278;2023-07-13T06:30:26;28.20;52.20
3986;DHT22;2007;48.750;9.278;2023-07-13T06:32:54;28.20;52.30
3986;DHT22;2007;48.750;9.278;2023-07-13T06:35:22;28.20;52.20
3986;DHT22;2007;48.750;9.278;2023-07-13T06:37:51;28.20;52.20
3986;DHT22;2007;48.750;9.278;2023-07-13T06:40:19;28.20;52.20
3986;DHT22;2007;48.750;9.278;2023-07-13T06:42:47;28.20;52.30
3986;DHT22;2007;48.750;9.278;2023-07-13T06:45:15;28.20;52.30
3986;DHT22;2007;48.750;9.278;2023-07-13T06:47:43;28.20;52.30
3986;DHT22;2007;48.750;9.278;2023-07-13T06:50:11;28.20;52.30
3986;DHT22;2007;48.750;9.278;2023-07-13T06:52:39;28.20;52.30
3986;DHT22;2007;48.750;9.278;2023-07-13T06:55:09;28.20;52.40
3986;DHT22;2007;48.750;9.278;2023-07-13T06:57:37;28.10;52.30
3986;DHT22;2007;48.750;9.278;2023-07-13T07:00:06;28.20;52.40
3986;DHT22;2007;48.750;9.278;2023-07-13T07:02:36;28.20;52.50
3986;DHT22;2007;48.750;9.278;2023-07-13T07:05:05;28.10;52.40
3986;DHT22;2007;48.750;9.278;2023-07-13T07:07:33;28.20;52.50
3986;DHT22;2007;48.750;9.278;2023-07-13T07:10:01;28.10;52.40
3986;DHT22;2007;48.750;9.278;2023-07-13T07:12:31;28.20;52.60
3986;DHT22;2007;48.750;9.278;2023-07-13T07:14:59;28.10;52.40
3986;DHT22;2007;48.750;9.278;2023-07-13T07:17:27;28.10;52.50
3986;DHT22;2007;48.750;9.278;2023-07-13T07:19:55;28.10;52.50
3986;DHT22;2007;48.750;9.278;2023-07-13T07:22:23;28.10;52.50
3986;DHT22;2007;48.750;9.278;2023-07-13T07:24:54;28.10;52.50
3986;DHT22;2007;48.750;9.278;2023-07-13T07:27:22;28.10;52.60
3986;DHT22;2007;48.750;9.278;2023-07-13T07:29:54;28.10;52.60
3986;DHT22;2007;48.750;9.278;2023-07-13T07:32:29;28.10;52.50
3986;DHT22;2007;48.750;9.278;2023-07-13T07:35:17;28.10;52.60
3986;DHT22;2007;48.750;9.278;2023-07-13T07:37:46;28.10;52.60
3986;DHT22;2007;48.750;9.278;2023-07-13T07:40:16;28.10;52.60
3986;DHT22;2007;48.750;9.278;2023-07-13T07:42:47;28.10;52.60
3986;DHT22;2007;48.750;9.278;2023-07-13T07:45:16;28.10;52.60
3986;DHT22;2007;48.750;9.278;2023-07-13T07:47:44;28.10;52.60
3986;DHT22;2007;48.750;9.278;2023-07-13T07:50:13;28.10;52.60
3986;DHT22;2007;48.750;9.278;2023-07-13T07:52:41;28.10;52.60
3986;DHT22;2007;48.750;9.278;2023-07-13T07:55:10;28.10;52.70
3986;DHT22;2007;48.750;9.278;2023-07-13T07:57:41;28.10;52.70
3986;DHT22;2007;48.750;9.278;2023-07-13T08:00:13;28.10;52.70
3986;DHT22;2007;48.750;9.278;2023-07-13T08:02:45;28.10;52.70
3986;DHT22;2007;48.750;9.278;2023-07-13T08:05:16;28.10;52.70
3986;DHT22;2007;48.750;9.278;2023-07-13T08:08:05;28.10;52.70
3986;DHT22;2007;48.750;9.278;2023-07-13T08:10:35;28.10;52.70
3986;DHT22;2007;48.750;9.278;2023-07-13T08:13:03;28.10;52.70
3986;DHT22;2007;48.750;9.278;2023-07-13T08:15:34;28.10;52.70
3986;DHT22;2007;48.750;9.278;2023-07-13T08:18:04;28.10;52.70
3986;DHT22;2007;48.750;9.278;2023-07-13T08:20:32;28.10;52.70
3986;DHT22;2007;48.750;9.278;2023-07-13T08:23:00;28.10;52.70
3986;DHT22;2007;48.750;9.278;2023-07-13T08:25:28;28.10;52.70
3986;DHT22;2007;48.750;9.278;2023-07-13T08:27:56;28.10;52.70
3986;DHT22;2007;48.750;9.278;2023-07-13T08:30:24;28.10;52.70
3986;DHT22;2007;48.750;9.278;2023-07-13T08:32:53;28.10;52.80
3986;DHT22;2007;48.750;9.278;2023-07-13T08:35:22;28.10;52.80
3986;DHT22;2007;48.750;9.278;2023-07-13T08:37:52;28.10;52.80
3986;DHT22;2007;48.750;9.278;2023-07-13T08:40:25;28.10;52.80
3986;DHT22;2007;48.750;9.278;2023-07-13T08:42:54;28.10;52.80
3986;DHT22;2007;48.750;9.278;2023-07-13T08:45:27;28.10;52.80
3986;DHT22;2007;48.750;9.278;2023-07-13T08:48:02;28.10;52.80
3986;DHT22;2007;48.750;9.278;2023-07-13T08:50:35;28.10;52.80
3986;DHT22;2007;48.750;9.278;2023-07-13T08:53:30;28.10;52.80
3986;DHT22;2007;48.750;9.278;2023-07-13T08:56:00;28.10;52.80
3986;DHT22;2007;48.750;9.278;2023-07-13T08:58:29;28.10;52.80
3986;DHT22;2007;48.750;9.278;2023-07-13T09:01:03;28.10;52.80
3986;DHT22;2007;48.750;9.278;2023-07-13T09:03:38;28.10;52.80
3986;DHT22;2007;48.750;9.278;2023-07-13T09:06:11;28.10;52.80
3986;DHT22;2007;48.750;9.278;2023-07-13T09:08:48;28.10;52.80
3986;DHT22;2007;48.750;9.278;2023-07-13T09:11:30;28.10;52.80
3986;DHT22;2007;48.750;9.278;2023-07-13T09:16:51;28.10;52.80
3986;DHT22;2007;48.750;9.278;2023-07-13T09:19:23;28.10;52.80
3986;DHT22;2007;48.750;9.278;2023-07-13T09:21:54;28.10;52.80
3986;DHT22;2007;48.750;9.278;2023-07-13T09:24:33;28.10;52.80
3986;DHT22;2007;48.750;9.278;2023-07-13T09:27:10;28.10;52.80
3986;DHT22;2007;48.750;9.278;2023-07-13T09:29:42;28.10;52.80
3986;DHT22;2007;48.750;9.278;2023-07-13T09:32:14;28.10;52.80
3986;DHT22;2007;48.750;9.278;2023-07-13T09:34:50;28.10;52.80
3986;DHT22;2007;48.750;9.278;2023-07-13T09:37:22;28.10;52.80
3986;DHT22;2007;48.750;9.278;2023-07-13T09:39:52;28.00;52.80
3986;DHT22;2007;48.750;9.278;2023-07-13T09:42:22;28.00;52.80
3986;DHT22;2007;48.750;9.278;2023-07-13T09:44:53;28.00;52.80
3986;DHT22;2007;48.750;9.278;2023-07-13T09:47:23;28.00;53.50
3986;DHT22;2007;48.750;9.278;2023-07-13T09:49:57;28.00;52.80
3986;DHT22;2007;48.750;9.278;2023-07-13T09:52:41;28.00;52.80
3986;DHT22;2007;48.750;9.278;2023-07-13T09:55:25;28.00;52.80
3986;DHT22;2007;48.750;9.278;2023-07-13T09:57:53;28.00;52.80
3986;DHT22;2007;48.750;9.278;2023-07-13T10:00:23;28.00;52.80
3986;DHT22;2007;48.750;9.278;2023-07-13T10:03:00;28.00;52.80
3986;DHT22;2007;48.750;9.278;2023-07-13T10:05:37;28.00;52.80
3986;DHT22;2007;48.750;9.278;2023-07-13T10:08:16;28.00;52.80
3986;DHT22;2007;48.750;9.278;2023-07-13T10:10:45;28.00;52.80
3986;DHT22;2007;48.750;9.278;2023-07-13T10:13:26;28.00;53.50
3986;DHT22;2007;48.750;9.278;2023-07-13T10:15:55;28.00;52.80
3986;DHT22;2007;48.750;9.278;2023-07-13T10:18:25;28.00;52.80
3986;DHT22;2007;48.750;9.278;2023-07-13T10:21:00;28.00;52.90
3986;DHT22;2007;48.750;9.278;2023-07-13T10:24:04;28.00;52.80
3986;DHT22;2007;48.750;9.278;2023-07-13T10:26:34;28.00;52.80
3986;DHT22;2007;48.750;9.278;2023-07-13T10:29:05;28.00;52.80
3986;DHT22;2007;48.750;9.278;2023-07-13T10:31:37;28.00;52.80
3986;DHT22;2007;48.750;9.278;2023-07-13T10:34:09;28.00;52.90
3986;DHT22;2007;48.750;9.278;2023-07-13T10:36:40;28.00;52.90
3986;DHT22;2007;48.750;9.278;2023-07-13T10:39:19;28.00;52.90
3986;DHT22;2007;48.750;9.278;2023-07-13T10:41:51;28.00;52.90
3986;DHT22;2007;48.750;9.278;2023-07-13T10:44:23;28.00;52.90
3986;DHT22;2007;48.750;9.278;2023-07-13T10:46:55;28.00;52.90
3986;DHT22;2007;48.750;9.278;2023-07-13T10:49:24;28.00;52.90
3986;DHT22;2007;48.750;9.278;2023-07-13T10:51:53;28.00;52.90
3986;DHT22;2007;48.750;9.278;2023-07-13T10:54:27;28.00;52.90
3986;DHT22;2007;48.750;9.278;2023-07-13T10:57:14;28.00;52.90
3986;DHT22;2007;48.750;9.278;2023-07-13T10:59:47;28.00;52.90
3986;DHT22;2007;48.750;9.278;2023-07-13T11:02:25;28.00;52.90
3986;DHT22;2007;48.750;9.278;2023-07-13T11:04:55;28.00;52.90
3986;DHT22;2007;48.750;9.278;2023-07-13T11:07:27;27.90;52.90
3986;DHT22;2007;48.750;9.278;2023-07-13T11:09:57;27.90;52.90
3986;DHT22;2007;48.750;9.278;2023-07-13T11:15:28;27.90;52.90
3986;DHT22;2007;48.750;9.278;2023-07-13T11:17:57;27.90;52.90
3986;DHT22;2007;48.750;9.278;2023-07-13T11:20:38;27.90;52.90
3986;DHT22;2007;48.750;9.278;2023-07-13T11:23:28;27.90;52.90
3986;DHT22;2007;48.750;9.278;2023-07-13T11:25:59;27.90;52.90
3986;DHT22;2007;48.750;9.278;2023-07-13T11:28:31;27.90;52.90
3986;DHT22;2007;48.750;9.278;2023-07-13T11:33:51;27.90;52.90
3986;DHT22;2007;48.750;9.278;2023-07-13T11:36:22;27.90;52.90
3986;DHT22;2007;48.750;9.278;2023-07-13T11:38:59;27.90;52.90
3986;DHT22;2007;48.750;9.278;2023-07-13T11:41:31;27.90;52.90
3986;DHT22;2007;48.750;9.278;2023-07-13T11:44:12;27.90;53.10
3986;DHT22;2007;48.750;9.278;2023-07-13T11:46:46;27.90;52.90
3986;DHT22;2007;48.750;9.278;2023-07-13T11:49:19;27.90;52.90
3986;DHT22;2007;48.750;9.278;2023-07-13T11:51:51;27.90;52.90
3986;DHT22;2007;48.750;9.278;2023-07-13T11:54:26;27.90;52.90
3986;DHT22;2007;48.750;9.278;2023-07-13T11:56:58;27.90;52.90
3986;DHT22;2007;48.750;9.278;2023-07-13T11:59:29;27.90;52.90
3986;DHT22;2007;48.750;9.278;2023-07-13T12:01:58;27.90;52.90
3986;DHT22;2007;48.750;9.278;2023-07-13T12:04:29;27.90;52.90
3986;DHT22;2007;48.750;9.278;2023-07-13T12:07:04;27.90;52.90
3986;DHT22;2007;48.750;9.278;2023-07-13T12:09:35;27.90;52.90
3986;DHT22;2007;48.750;9.278;2023-07-13T12:12:11;27.90;52.90
3986;DHT22;2007;48.750;9.278;2023-07-13T12:14:40;27.90;52.90
3986;DHT22;2007;48.750;9.278;2023-07-13T12:17:13;27.90;52.90
3986;DHT22;2007;48.750;9.278;2023-07-13T12:19:42;27.90;52.90
3986;DHT22;2007;48.750;9.278;2023-07-13T12:22:13;27.90;53.00
3986;DHT22;2007;48.750;9.278;2023-07-13T12:24:42;27.90;53.00
3986;DHT22;2007;48.750;9.278;2023-07-13T12:27:19;27.90;53.00
3986;DHT22;2007;48.750;9.278;2023-07-13T12:29:50;27.90;53.00
3986;DHT22;2007;48.750;9.278;2023-07-13T12:32:20;27.90;53.00
3986;DHT22;2007;48.750;9.278;2023-07-13T12:34:53;27.90;53.00
3986;DHT22;2007;48.750;9.278;2023-07-13T12:37:23;27.90;53.00
3986;DHT22;2007;48.750;9.278;2023-07-13T12:39:52;27.90;53.00
3986;DHT22;2007;48.750;9.278;2023-07-13T12:42:23;27.90;53.00
3986;DHT22;2007;48.750;9.278;2023-07-13T12:44:56;27.80;52.90
3986;DHT22;2007;48.750;9.278;2023-07-13T12:47:24;27.90;53.00
3986;DHT22;2007;48.750;9.278;2023-07-13T12:49:54;27.90;53.00
3986;DHT22;2007;48.750;9.278;2023-07-13T12:52:27;27.90;52.90
3986;DHT22;2007;48.750;9.278;2023-07-13T12:54:58;27.90;52.90
3986;DHT22;2007;48.750;9.278;2023-07-13T12:57:38;27.90;52.90
3986;DHT22;2007;48.750;9.278;2023-07-13T13:00:21;27.80;52.80
3986;DHT22;2007;48.750;9.278;2023-07-13T13:02:53;27.90;52.70
3986;DHT22;2007;48.750;9.278;2023-07-13T13:05:34;27.80;52.80
3986;DHT22;2007;48.750;9.278;2023-07-13T13:08:04;27.90;52.90
3986;DHT22;2007;48.750;9.278;2023-07-13T13:10:32;27.90;52.90
3986;DHT22;2007;48.750;9.278;2023-07-13T13:13:01;27.90;52.90
3986;DHT22;2007;48.750;9.278;2023-07-13T13:15:30;27.80;52.80
3986;DHT22;2007;48.750;9.278;2023-07-13T13:17:58;27.90;52.80
3986;DHT22;2007;48.750;9.278;2023-07-13T13:20:26;27.80;52.80
3986;DHT22;2007;48.750;9.278;2023-07-13T13:22:54;27.80;52.70
3986;DHT22;2007;48.750;9.278;2023-07-13T13:25:22;27.90;53.40
3986;DHT22;2007;48.750;9.278;2023-07-13T13:27:50;27.80;52.70
3986;DHT22;2007;48.750;9.278;2023-07-13T13:30:19;27.80;53.40
3986;DHT22;2007;48.750;9.278;2023-07-13T13:32:48;27.80;52.70
3986;DHT22;2007;48.750;9.278;2023-07-13T13:35:18;27.80;52.80
3986;DHT22;2007;48.750;9.278;2023-07-13T13:37:47;27.90;52.80
3986;DHT22;2007;48.750;9.278;2023-07-13T13:40:18;27.90;52.80
3986;DHT22;2007;48.750;9.278;2023-07-13T13:42:47;27.80;52.80
3986;DHT22;2007;48.750;9.278;2023-07-13T13:45:15;27.80;52.70
3986;DHT22;2007;48.750;9.278;2023-07-13T13:47:45;27.80;52.80
3986;DHT22;2007;48.750;9.278;2023-07-13T13:50:17;27.90;52.80
3986;DHT22;2007;48.750;9.278;2023-07-13T13:52:45;27.90;52.80
3986;DHT22;2007;48.750;9.278;2023-07-13T13:55:14;27.80;52.60
3986;DHT22;2007;48.750;9.278;2023-07-13T13:57:42;27.80;52.60
3986;DHT22;2007;48.750;9.278;2023-07-13T14:00:11;27.90;52.60
3986;DHT22;2007;48.750;9.278;2023-07-13T14:02:43;27.90;52.60
3986;DHT22;2007;48.750;9.278;2023-07-13T14:05:19;27.90;52.50
3986;DHT22;2007;48.750;9.278;2023-07-13T14:07:48;27.90;52.50
3986;DHT22;2007;48.750;9.278;2023-07-13T14:10:17;27.90;52.50
3986;DHT22;2007;48.750;9.278;2023-07-13T14:12:50;27.90;52.40
3986;DHT22;2007;48.750;9.278;2023-07-13T14:15:21;27.90;52.40
3986;DHT22;2007;48.750;9.278;2023-07-13T14:17:50;27.90;52.40
3986;DHT22;2007;48.750;9.278;2023-07-13T14:20:21;27.90;52.40
3986;DHT22;2007;48.750;9.278;2023-07-13T14:22:51;27.90;52.40
3986;DHT22;2007;48.750;9.278;2023-07-13T14:25:20;27.90;52.40
3986;DHT22;2007;48.750;9.278;2023-07-13T14:27:50;27.90;52.40
3986;DHT22;2007;48.750;9.278;2023-07-13T14:30:21;27.90;52.40
3986;DHT22;2007;48.750;9.278;2023-07-13T14:32:49;27.90;52.30
3986;DHT22;2007;48.750;9.278;2023-07-13T14:35:20;27.90;52.40
3986;DHT22;2007;48.750;9.278;2023-07-13T14:37:50;27.90;52.40
3986;DHT22;2007;48.750;9.278;2023-07-13T14:40:23;27.90;52.40
3986;DHT22;2007;48.750;9.278;2023-07-13T14:42:52;27.90;52.50
3986;DHT22;2007;48.750;9.278;2023-07-13T14:45:20;27.90;52.40
3986;DHT22;2007;48.750;9.278;2023-07-13T14:47:48;27.90;52.40
3986;DHT22;2007;48.750;9.278;2023-07-13T14:50:20;27.90;52.40
3986;DHT22;2007;48.750;9.278;2023-07-13T14:52:48;27.90;52.40
3986;DHT22;2007;48.750;9.278;2023-07-13T14:55:18;27.90;52.30
3986;DHT22;2007;48.750;9.278;2023-07-13T14:57:46;27.90;52.40
3986;DHT22;2007;48.750;9.278;2023-07-13T15:00:15;27.90;52.30
3986;DHT22;2007;48.750;9.278;2023-07-13T15:02:45;27.90;52.30
3986;DHT22;2007;48.750;9.278;2023-07-13T15:05:17;27.90;52.30
3986;DHT22;2007;48.750;9.278;2023-07-13T15:07:46;27.90;52.40
3986;DHT22;2007;48.750;9.278;2023-07-13T15:10:16;27.90;52.40
3986;DHT22;2007;48.750;9.278;2023-07-13T15:12:45;27.90;52.40
3986;DHT22;2007;48.750;9.278;2023-07-13T15:15:14;27.80;52.40
3986;DHT22;2007;48.750;9.278;2023-07-13T15:17:44;27.90;52.40
3986;DHT22;2007;48.750;9.278;2023-07-13T15:20:19;27.90;52.40
3986;DHT22;2007;48.750;9.278;2023-07-13T15:22:50;27.90;52.40
3986;DHT22;2007;48.750;9.278;2023-07-13T15:25:20;27.90;52.40
3986;DHT22;2007;48.750;9.278;2023-07-13T15:27:49;27.90;52.40
3986;DHT22;2007;48.750;9.278;2023-07-13T15:30:17;27.90;52.40
3986;DHT22;2007;48.750;9.278;2023-07-13T15:32:45;27.90;52.40
3986;DHT22;2007;48.750;9.278;2023-07-13T15:35:15;27.90;52.40
3986;DHT22;2007;48.750;9.278;2023-07-13T15:37:44;27.90;52.40
3986;DHT22;2007;48.750;9.278;2023-07-13T15:40:14;27.90;52.40
3986;DHT22;2007;48.750;9.278;2023-07-13T15:42:43;27.90;52.40
3986;DHT22;2007;48.750;9.278;2023-07-13T15:45:16;27.90;52.40
3986;DHT22;2007;48.750;9.278;2023-07-13T15:47:44;27.90;52.40
3986;DHT22;2007;48.750;9.278;2023-07-13T15:50:14;27.90;53.00
3986;DHT22;2007;48.750;9.278;2023-07-13T15:52:44;27.90;52.30
3986;DHT22;2007;48.750;9.278;2023-07-13T15:55:14;27.90;52.40
3986;DHT22;2007;48.750;9.278;2023-07-13T15:57:46;27.90;52.40
3986;DHT22;2007;48.750;9.278;2023-07-13T16:00:19;27.90;52.30
3986;DHT22;2007;48.750;9.278;2023-07-13T16:02:48;27.90;52.30
3986;DHT22;2007;48.750;9.278;2023-07-13T16:05:16;27.90;52.30
3986;DHT22;2007;48.750;9.278;2023-07-13T16:07:45;27.90;52.20
3986;DHT22;2007;48.750;9.278;2023-07-13T16:10:15;27.90;52.20
3986;DHT22;2007;48.750;9.278;2023-07-13T16:12:44;27.90;52.20
3986;DHT22;2007;48.750;9.278;2023-07-13T16:15:15;28.00;52.20
3986;DHT22;2007;48.750;9.278;2023-07-13T16:17:43;27.90;52.20
3986;DHT22;2007;48.750;9.278;2023-07-13T16:20:12;27.90;52.20
3986;DHT22;2007;48.750;9.278;2023-07-13T16:22:43;27.90;52.20
3986;DHT22;2007;48.750;9.278;2023-07-13T16:25:19;28.00;52.30
3986;DHT22;2007;48.750;9.278;2023-07-13T16:27:48;28.00;52.20
3986;DHT22;2007;48.750;9.278;2023-07-13T16:30:18;28.00;52.20
3986;DHT22;2007;48.750;9.278;2023-07-13T16:32:48;28.00;52.20